PAPH

Details ICAO PAPH (PTH)
Name PORT HEIDEN
Region USA (Alaska)
Timezone America/Anchorage (UTC-8.0)
Plans Departing 10
Arriving 9
Stats Elevation 95 ft / 29 m (AMSL)
Location 56.959091° -158.634728°
Runways 2
Magnetic Variation 12.418° E
Sunrise 2018-05-20 14:07:59 UTC / 2018-05-20 06:07:59 Local
Sunset 2018-05-21 06:57:02 UTC / 2018-05-20 22:57:02 Local
Advertisement - Login to hide

Runways

ID Width Length Bearing (true) Bearing (mag) Surface Threshold Offset Overrun Length
05 100 ft / 30 m 4,985 ft / 1,520 m 70.31° 57.89° Gravel 0 ft / 0 m 0 ft / 0 m
13 100 ft / 30 m 3,993 ft / 1,217 m 147.51° 135.09° Gravel 0 ft / 0 m 0 ft / 0 m
23 100 ft / 30 m 4,985 ft / 1,520 m 250.33° 237.91° Gravel 0 ft / 0 m 0 ft / 0 m
31 100 ft / 30 m 3,993 ft / 1,217 m 327.52° 315.10° Gravel 0 ft / 0 m 0 ft / 0 m

Map

Weather


0- 5 10 15 20 25 30 35+ Temperature / ° C

Clouds and Precipitation
Forecast for 2018-05-21 12:00 UTC. Updated 24 minutes ago

Ground ~20,000 ft ~40,000 ft Winds

METAR

PAPH 210856Z AUTO 35012KT 10SM BKN050 06/04 A2936 RMK AO2 SLP947 T00560039 52005

TAF

Not found

Frequencies

Recorded 135.40 MHz AWOS 3
Unicom 122.80 MHz CTAF
Warning: Do not use this data for real-world aviation or navigation. No guarantee of current accuracy is given.